Time;durP1;ratioP1;P1;durP2;ratioP2;P2;SDS_P1;SDS_P2;PMS_P1;PMS_P2;Temp;Humidity;BMP_temperature;BMP_pressure;BME280_temperature;BME280_humidity;BME280_pressure;Samples;Min_cycle;Max_cycle;Signal;HPM_P1;HPM_P2
2023/08/03 00:01:24;;;;;;;6.47;1.35;;;15.00;99.90;;;;;;5078033;28;19916;-66
2023/08/03 00:03:50;;;;;;;12.85;1.60;;;14.90;99.90;;;;;;5079420;28;20044;-66
2023/08/03 00:06:16;;;;;;;8.00;1.70;;;14.90;99.90;;;;;;5078865;28;20068;-65
2023/08/03 00:08:41;;;;;;;;;;;14.90;99.90;;;;;;5077670;28;20056;-66
2023/08/03 00:11:07;;;;;;;6.30;1.80;;;14.90;99.90;;;;;;5078292;28;19977;-65
2023/08/03 00:13:32;;;;;;;11.88;2.65;;;14.80;99.90;;;;;;5076390;28;20475;-66
2023/08/03 00:15:58;;;;;;;;;;;14.70;99.90;;;;;;5079454;28;20123;-66
2023/08/03 00:18:24;;;;;;;12.77;2.10;;;14.70;99.90;;;;;;5066527;28;19920;-68
2023/08/03 00:20:50;;;;;;;;;;;14.60;99.90;;;;;;5065842;28;20040;-67
2023/08/03 00:23:18;;;;;;;6.95;1.30;;;14.60;99.90;;;;;;5063273;28;20005;-67
2023/08/03 00:25:44;;;;;;;11.43;2.15;;;14.60;99.90;;;;;;5064474;28;20619;-67
2023/08/03 00:28:09;;;;;;;;;;;14.60;99.90;;;;;;5061664;28;20131;-67
2023/08/03 00:30:35;;;;;;;7.03;1.10;;;14.50;99.90;;;;;;5062397;28;19923;-67
2023/08/03 00:33:01;;;;;;;;;;;14.50;99.90;;;;;;5065786;28;20044;-67
2023/08/03 00:35:26;;;;;;;8.43;1.35;;;14.50;99.90;;;;;;5066223;28;19920;-68
2023/08/03 00:37:53;;;;;;;;;;;14.50;99.90;;;;;;5061495;28;20036;-67
2023/08/03 00:40:19;;;;;;;4.82;1.10;;;14.50;99.90;;;;;;5063636;28;19924;-67
2023/08/03 00:42:45;;;;;;;3.63;0.77;;;14.50;99.90;;;;;;5065042;28;20504;-68
2023/08/03 00:45:13;;;;;;;;;;;14.50;99.90;;;;;;5065019;28;20044;-68
2023/08/03 00:47:39;;;;;;;4.78;0.70;;;14.40;99.90;;;;;;5065243;28;19916;-67
2023/08/03 00:50:07;;;;;;;4.40;0.70;;;14.40;99.90;;;;;;5053202;28;20086;-68
2023/08/03 00:52:35;;;;;;;5.35;0.88;;;14.40;99.90;;;;;;5063403;28;20051;-67
2023/08/03 00:55:02;;;;;;;3.53;0.80;;;14.40;99.90;;;;;;5064256;28;20515;-67
2023/08/03 00:57:30;;;;;;;4.63;0.73;;;14.40;99.90;;;;;;5064612;28;20056;-68
2023/08/03 00:59:56;;;;;;;2.38;0.70;;;14.40;99.90;;;;;;5064077;28;20855;-67
2023/08/03 01:02:22;;;;;;;2.47;0.68;;;14.40;99.90;;;;;;5063389;28;20044;-68
2023/08/03 01:04:48;;;;;;;4.65;0.85;;;14.40;99.90;;;;;;5064837;28;20052;-67
2023/08/03 01:07:14;;;;;;;8.43;0.73;;;14.40;99.90;;;;;;5064296;28;20040;-67
2023/08/03 01:09:40;;;;;;;;;;;14.40;99.90;;;;;;5063952;28;20044;-67
2023/08/03 01:12:06;;;;;;;5.30;1.67;;;14.40;99.90;;;;;;5064889;28;19917;-67
2023/08/03 01:14:32;;;;;;;2.13;0.73;;;14.40;99.90;;;;;;5064844;28;20043;-67
2023/08/03 01:16:59;;;;;;;;;;;14.40;99.90;;;;;;5067776;28;20139;-67
2023/08/03 01:19:24;;;;;;;3.58;0.60;;;14.20;99.90;;;;;;5064065;28;20376;-66
2023/08/03 01:21:51;;;;;;;;;;;14.00;99.90;;;;;;5066005;28;20037;-67
2023/08/03 01:24:16;;;;;;;3.83;0.68;;;14.00;99.90;;;;;;5067797;28;19916;-68
2023/08/03 01:26:44;;;;;;;;;;;13.90;99.90;;;;;;5065508;28;20045;-67
2023/08/03 01:29:09;;;;;;;;;;;13.90;99.90;;;;;;5063413;28;19920;-68
2023/08/03 01:31:35;;;;;;;5.82;0.98;;;13.90;99.90;;;;;;5064242;28;19917;-68
2023/08/03 01:34:01;;;;;;;2.05;0.50;;;13.90;99.90;;;;;;5062758;28;20063;-68
2023/08/03 01:36:27;;;;;;;4.32;0.80;;;13.80;99.90;;;;;;5055899;28;20048;-68
2023/08/03 01:38:54;;;;;;;;;;;13.90;99.90;;;;;;5056920;28;20098;-68
2023/08/03 01:41:21;;;;;;;6.18;0.90;;;13.80;99.90;;;;;;5064775;28;19926;-68
2023/08/03 01:43:47;;;;;;;2.38;0.75;;;13.80;99.90;;;;;;5064081;28;20037;-69
2023/08/03 01:46:13;;;;;;;;;;;13.80;99.90;;;;;;5080307;28;20040;-68
2023/08/03 01:48:38;;;;;;;3.40;0.90;;;13.80;99.90;;;;;;5063014;28;19918;-67
2023/08/03 01:51:04;;;;;;;;;;;13.80;99.90;;;;;;5065391;28;20036;-68
2023/08/03 01:53:29;;;;;;;5.15;0.63;;;13.90;99.90;;;;;;5064698;28;19920;-68
2023/08/03 01:55:55;;;;;;;;;;;13.90;99.90;;;;;;5064853;28;20050;-68
2023/08/03 01:58:26;;;;;;;2.85;0.50;;;14.00;99.90;;;;;;5064977;28;19974;-69
2023/08/03 02:00:52;;;;;;;2.72;0.70;;;14.00;99.90;;;;;;5065054;28;20097;-70
2023/08/03 02:03:18;;;;;;;;;;;13.90;99.90;;;;;;5063239;28;20037;-70
2023/08/03 02:05:43;;;;;;;1.13;0.52;;;14.00;99.90;;;;;;5063762;28;19920;-68
2023/08/03 02:08:09;;;;;;;;;;;14.00;99.90;;;;;;5053499;28;20124;-69
2023/08/03 02:10:37;;;;;;;3.55;0.75;;;14.00;99.90;;;;;;5061701;28;19962;-68
2023/08/03 02:13:03;;;;;;;4.82;1.23;;;14.00;99.90;;;;;;5062955;28;20037;-71
2023/08/03 02:15:28;;;;;;;;;;;14.00;99.90;;;;;;5062702;28;20037;-70
2023/08/03 02:17:54;;;;;;;2.47;0.45;;;14.00;99.90;;;;;;5077460;28;20364;-69
2023/08/03 02:20:20;;;;;;;1.80;0.40;;;14.10;99.90;;;;;;5060806;28;20071;-69
2023/08/03 02:22:48;;;;;;;;;;;14.00;99.90;;;;;;5065388;28;20124;-67
2023/08/03 02:25:15;;;;;;;0.85;0.50;;;14.10;99.90;;;;;;5064486;28;19923;-68
2023/08/03 02:27:41;;;;;;;5.18;0.90;;;14.10;99.90;;;;;;5063848;28;20080;-69
2023/08/03 02:30:16;;;;;;;;;;;14.00;99.90;;;;;;5062434;28;20075;-70
2023/08/03 02:32:42;;;;;;;2.03;0.90;;;14.10;99.90;;;;;;5078293;28;19920;-69
2023/08/03 02:35:07;;;;;;;;;;;14.10;99.90;;;;;;5064340;28;20189;-68
2023/08/03 02:37:35;;;;;;;0.40;0.30;;;14.10;99.90;;;;;;5064606;28;19971;-68
2023/08/03 02:40:08;;;;;;;2.20;0.77;;;14.10;99.90;;;;;;5063749;28;20072;-68
2023/08/03 02:42:39;;;;;;;4.22;0.80;;;14.10;99.90;;;;;;5064269;28;20088;-68
2023/08/03 02:45:11;;;;;;;3.63;0.70;;;14.10;99.90;;;;;;5060086;28;20848;-68
2023/08/03 02:47:37;;;;;;;3.03;0.50;;;14.00;99.90;;;;;;5051691;28;20047;-68
2023/08/03 02:50:03;;;;;;;;;;;14.00;99.90;;;;;;5062750;28;20037;-69
2023/08/03 02:52:29;;;;;;;4.30;0.60;;;14.10;99.90;;;;;;5064839;28;19916;-68
2023/08/03 02:54:54;;;;;;;;;;;14.10;99.90;;;;;;5063440;28;20068;-69
2023/08/03 02:57:20;;;;;;;1.35;0.45;;;14.10;99.90;;;;;;5064266;28;19916;-68
2023/08/03 02:59:46;;;;;;;2.30;0.65;;;14.10;99.90;;;;;;5063359;28;20711;-69
2023/08/03 03:02:11;;;;;;;;;;;14.20;99.90;;;;;;5065145;28;20071;-68
2023/08/03 03:04:37;;;;;;;1.33;0.43;;;14.20;99.90;;;;;;5063627;28;19931;-67
2023/08/03 03:07:02;;;;;;;2.85;0.40;;;14.20;99.90;;;;;;5065233;28;20071;-68
2023/08/03 03:09:28;;;;;;;;;;;14.20;99.90;;;;;;5062637;28;20044;-69
2023/08/03 03:11:55;;;;;;;7.05;0.50;;;14.20;99.90;;;;;;5063612;28;19998;-67
2023/08/03 03:14:23;;;;;;;2.00;0.55;;;14.20;99.90;;;;;;5063244;28;20062;-68
2023/08/03 03:16:49;;;;;;;3.03;0.60;;;14.20;99.90;;;;;;5071138;28;20052;-68
2023/08/03 03:19:17;;;;;;;;;;;14.20;99.90;;;;;;5063818;28;20035;-69
2023/08/03 03:21:44;;;;;;;0.55;0.40;;;14.20;99.90;;;;;;5059424;28;19920;-68
2023/08/03 03:24:10;;;;;;;3.15;0.32;;;14.20;99.90;;;;;;5039512;28;20805;-69
2023/08/03 03:26:36;;;;;;;;;;;14.20;99.90;;;;;;5044196;28;20050;-68
2023/08/03 03:29:01;;;;;;;2.70;0.43;;;14.30;99.90;;;;;;5036016;28;19924;-69
2023/08/03 03:31:27;;;;;;;4.63;0.30;;;14.20;99.90;;;;;;5042665;28;20048;-73
2023/08/03 03:33:52;;;;;;;;;;;14.20;99.90;;;;;;5048118;28;20037;-69
2023/08/03 03:36:18;;;;;;;0.57;0.30;;;14.20;99.90;;;;;;5052349;28;19967;-70
2023/08/03 03:38:43;;;;;;;;;;;14.10;99.90;;;;;;5049462;28;20037;-68
2023/08/03 03:41:09;;;;;;;3.13;0.60;;;14.10;99.90;;;;;;5065880;28;20810;-69
2023/08/03 03:43:35;;;;;;;;;;;14.10;99.90;;;;;;5056972;28;20040;-68
2023/08/03 03:46:02;;;;;;;3.55;0.50;;;14.10;99.90;;;;;;5046125;28;20039;-68
2023/08/03 03:48:28;;;;;;;5.85;0.65;;;14.10;99.90;;;;;;5035265;28;20489;-67
2023/08/03 03:50:54;;;;;;;1.75;0.45;;;14.20;99.90;;;;;;5045098;28;20047;-68
2023/08/03 03:53:20;;;;;;;;;;;14.20;99.90;;;;;;5065415;28;20037;-68
2023/08/03 03:55:45;;;;;;;2.78;0.60;;;14.20;99.90;;;;;;5061431;28;19916;-68
2023/08/03 03:58:11;;;;;;;2.17;0.60;;;14.20;99.90;;;;;;5058275;28;20074;-67
2023/08/03 04:00:40;;;;;;;2.40;0.60;;;14.30;99.90;;;;;;5058152;28;20040;-69
2023/08/03 04:03:09;;;;;;;2.25;0.40;;;14.30;99.90;;;;;;5060077;28;20044;-69
2023/08/03 04:05:35;;;;;;;2.45;0.50;;;14.30;99.90;;;;;;5058472;28;20047;-68
2023/08/03 04:08:01;;;;;;;1.08;0.32;;;14.30;99.90;;;;;;5061281;28;20143;-68
2023/08/03 04:10:27;;;;;;;2.17;0.77;;;14.20;99.90;;;;;;5059329;28;20036;-68
2023/08/03 04:12:54;;;;;;;2.05;0.93;;;14.30;99.90;;;;;;5061373;28;20070;-68
2023/08/03 04:15:19;;;;;;;;;;;14.30;99.90;;;;;;5060755;28;20043;-68
2023/08/03 04:17:54;;;;;;;1.08;0.50;;;14.30;99.90;;;;;;5060674;28;19916;-68
2023/08/03 04:20:19;;;;;;;5.75;0.80;;;14.30;99.90;;;;;;5060491;28;20028;-68
2023/08/03 04:22:45;;;;;;;;;;;14.30;99.90;;;;;;5063421;28;20055;-68
2023/08/03 04:25:10;;;;;;;1.15;0.50;;;14.30;99.90;;;;;;5059195;28;19916;-68
2023/08/03 04:27:36;;;;;;;0.77;0.60;;;14.40;99.90;;;;;;5061777;28;20165;-68
2023/08/03 04:30:02;;;;;;;;;;;14.30;99.90;;;;;;5060276;28;20052;-67
2023/08/03 04:32:28;;;;;;;0.80;0.50;;;14.30;99.90;;;;;;5060134;28;19923;-69
2023/08/03 04:34:54;;;;;;;3.55;0.38;;;14.30;99.90;;;;;;5058140;28;20094;-70
2023/08/03 04:37:19;;;;;;;;;;;14.20;99.90;;;;;;5064371;28;20040;-69
2023/08/03 04:39:45;;;;;;;3.85;0.52;;;14.20;99.90;;;;;;5061044;28;19921;-69
2023/08/03 04:42:11;;;;;;;0.70;0.30;;;14.10;99.90;;;;;;5058214;28;20194;-70
2023/08/03 04:44:37;;;;;;;;;;;14.10;99.90;;;;;;5065279;28;20513;-70
2023/08/03 04:47:02;;;;;;;1.25;0.30;;;14.20;99.90;;;;;;5062549;28;19924;-67
2023/08/03 04:49:28;;;;;;;0.80;0.30;;;14.10;99.90;;;;;;5062521;28;20048;-68
2023/08/03 04:51:54;;;;;;;;;;;14.20;99.90;;;;;;5064250;28;20040;-69
2023/08/03 04:54:20;;;;;;;2.63;0.38;;;14.20;99.90;;;;;;5061778;28;19920;-68
2023/08/03 04:56:46;;;;;;;1.17;0.38;;;14.20;99.90;;;;;;5061926;28;20147;-68
2023/08/03 04:59:11;;;;;;;;;;;14.20;99.90;;;;;;5061317;28;20039;-68
2023/08/03 05:01:37;;;;;;;0.20;0.20;;;14.20;99.90;;;;;;5060633;28;19921;-68
2023/08/03 05:04:02;;;;;;;;;;;14.20;99.90;;;;;;5062221;28;20040;-68
2023/08/03 05:06:28;;;;;;;1.13;0.35;;;14.20;99.90;;;;;;5060438;28;19924;-67
2023/08/03 05:08:54;;;;;;;;;;;14.30;99.90;;;;;;5061452;28;20045;-68
2023/08/03 05:11:20;;;;;;;0.38;0.28;;;14.30;99.90;;;;;;5059616;28;19956;-68
2023/08/03 05:13:45;;;;;;;1.95;0.50;;;14.30;99.90;;;;;;5059375;28;20101;-68
2023/08/03 05:16:11;;;;;;;;;;;14.30;99.90;;;;;;5059417;28;20040;-67
2023/08/03 05:18:36;;;;;;;0.30;0.30;;;14.30;99.90;;;;;;5051085;28;19931;-67
2023/08/03 05:21:02;;;;;;;0.30;0.30;;;14.30;99.90;;;;;;5063877;28;20048;-67
2023/08/03 05:23:28;;;;;;;0.30;0.30;;;14.40;99.90;;;;;;5061041;28;20090;-67
2023/08/03 05:25:54;;;;;;;;;;;14.40;99.90;;;;;;5061181;28;20078;-67
2023/08/03 05:28:21;;;;;;;0.47;0.30;;;14.50;99.90;;;;;;5046907;28;19921;-69
2023/08/03 05:30:46;;;;;;;1.48;0.60;;;14.60;99.90;;;;;;5059343;28;20181;-64
2023/08/03 05:33:12;;;;;;;;;;;14.60;99.90;;;;;;5058505;28;20488;-64
2023/08/03 05:35:37;;;;;;;0.35;0.35;;;14.60;99.90;;;;;;5058420;28;20556;-66
2023/08/03 05:38:03;;;;;;;2.15;0.40;;;14.60;99.90;;;;;;5060676;28;20041;-67
2023/08/03 05:40:29;;;;;;;0.20;0.20;;;14.40;99.90;;;;;;5059702;28;20044;-66
2023/08/03 05:42:54;;;;;;;1.35;0.20;;;14.40;99.90;;;;;;5064089;28;20044;-66
2023/08/03 05:45:43;;;;;;;0.77;0.22;;;14.30;99.90;;;;;;5063206;28;20499;-64
2023/08/03 05:48:16;;;;;;;2.03;0.22;;;14.30;99.90;;;;;;5060083;28;20539;-65
2023/08/03 05:50:47;;;;;;;0.40;0.20;;;14.30;99.90;;;;;;5059569;28;20056;-68
2023/08/03 05:53:14;;;;;;;0.95;0.30;;;14.30;99.90;;;;;;5056602;28;20143;-66
2023/08/03 05:55:40;;;;;;;1.33;0.20;;;14.40;99.90;;;;;;5059363;28;20094;-66
2023/08/03 05:58:10;;;;;;;1.73;0.30;;;14.60;99.90;;;;;;5060880;28;20444;-68
2023/08/03 06:00:35;;;;;;;0.38;0.17;;;14.70;99.90;;;;;;5058206;28;20052;-67
2023/08/03 06:03:01;;;;;;;;;;;14.70;99.90;;;;;;5059884;28;20489;-67
2023/08/03 06:05:40;;;;;;;0.95;0.30;;;14.60;99.90;;;;;;5059472;28;19923;-70
2023/08/03 06:08:16;;;;;;;0.68;0.15;;;14.60;99.90;;;;;;5065393;28;20041;-69
2023/08/03 06:10:43;;;;;;;0.30;0.20;;;14.60;99.90;;;;;;5061482;28;20037;-68
2023/08/03 06:13:11;;;;;;;0.68;0.25;;;14.60;99.90;;;;;;5054714;28;20074;-69
2023/08/03 06:15:37;;;;;;;0.22;0.20;;;14.50;99.90;;;;;;5059636;28;20044;-63
2023/08/03 06:18:06;;;;;;;2.35;0.20;;;14.50;99.90;;;;;;5058306;28;20060;-64
2023/08/03 06:20:33;;;;;;;0.10;0.10;;;14.40;99.90;;;;;;5055791;28;20041;-69
2023/08/03 06:22:58;;;;;;;0.20;0.10;;;14.40;99.90;;;;;;5058586;28;20047;-68
2023/08/03 06:25:24;;;;;;;;;;;14.40;99.90;;;;;;5063411;28;20037;-66
2023/08/03 06:27:50;;;;;;;0.52;0.20;;;14.50;99.90;;;;;;5055817;28;20443;-67
2023/08/03 06:30:17;;;;;;;;;;;14.50;99.90;;;;;;5062412;28;20059;-67
2023/08/03 06:32:42;;;;;;;0.45;0.20;;;14.90;99.90;;;;;;5063079;28;20380;-69
2023/08/03 06:35:34;;;;;;;0.65;0.20;;;15.50;99.90;;;;;;5064545;28;20036;-69
2023/08/03 06:38:02;;;;;;;0.30;0.10;;;15.60;99.90;;;;;;5061083;28;20040;-67
2023/08/03 06:40:27;;;;;;;0.60;0.20;;;15.40;99.90;;;;;;5054171;28;20048;-67
2023/08/03 06:42:53;;;;;;;;;;;15.30;99.90;;;;;;5065296;28;20402;-67
2023/08/03 06:45:18;;;;;;;1.40;0.35;;;15.10;99.90;;;;;;5061955;28;20030;-67
2023/08/03 06:47:44;;;;;;;;;;;15.10;99.90;;;;;;5057852;28;20041;-67
2023/08/03 06:50:10;;;;;;;0.45;0.20;;;15.20;99.90;;;;;;5060992;28;19920;-69
2023/08/03 06:52:36;;;;;;;0.30;0.20;;;15.40;99.90;;;;;;5062206;28;20403;-68
2023/08/03 06:55:02;;;;;;;0.30;0.28;;;15.60;99.90;;;;;;5060812;28;20631;-67
2023/08/03 06:57:27;;;;;;;;;;;15.60;99.90;;;;;;5055089;28;20039;-68
2023/08/03 06:59:55;;;;;;;0.20;0.10;;;15.70;99.90;;;;;;5050717;28;20308;-68
2023/08/03 07:02:21;;;;;;;0.55;0.20;;;15.80;99.90;;;;;;5053590;28;20045;-71
2023/08/03 07:04:47;;;;;;;0.80;0.20;;;15.70;99.90;;;;;;5053481;28;20045;-70
2023/08/03 07:07:14;;;;;;;;;;;15.90;99.90;;;;;;5059264;28;20093;-70
2023/08/03 07:09:40;;;;;;;1.25;0.22;;;16.00;99.90;;;;;;5057526;28;20410;-68
2023/08/03 07:12:09;;;;;;;0.43;0.38;;;15.80;99.90;;;;;;5062869;28;20507;-69
2023/08/03 07:14:35;;;;;;;0.47;0.20;;;15.60;99.90;;;;;;5058181;28;20151;-69
2023/08/03 07:17:00;;;;;;;;;;;15.40;99.90;;;;;;5054179;28;20622;-68
2023/08/03 07:19:26;;;;;;;0.20;0.10;;;15.30;99.90;;;;;;5055823;28;19920;-71
2023/08/03 07:21:52;;;;;;;0.40;0.38;;;15.20;99.90;;;;;;5060689;28;20054;-68
2023/08/03 07:24:17;;;;;;;;;;;15.00;99.90;;;;;;5053129;28;20088;-71
2023/08/03 07:26:43;;;;;;;3.92;0.40;;;14.90;99.90;;;;;;5058648;28;20658;-69
2023/08/03 07:29:08;;;;;;;;;;;14.70;99.90;;;;;;5064195;28;20713;-68
2023/08/03 07:31:34;;;;;;;0.25;0.20;;;14.70;99.90;;;;;;5066752;28;20014;-68
2023/08/03 07:33:59;;;;;;;;;;;14.60;99.90;;;;;;5067162;28;20033;-68
2023/08/03 07:36:25;;;;;;;0.45;0.22;;;14.60;99.90;;;;;;5054146;28;20365;-69
2023/08/03 07:38:52;;;;;;;;;;;14.60;99.90;;;;;;5063860;28;21628;-70
2023/08/03 07:41:18;;;;;;;1.25;0.35;;;14.60;99.90;;;;;;5054585;28;19926;-68
2023/08/03 07:43:44;;;;;;;;;;;14.60;99.90;;;;;;5060260;28;20135;-67
2023/08/03 07:46:09;;;;;;;0.88;0.40;;;14.60;99.90;;;;;;5063045;28;19928;-67
2023/08/03 07:48:35;;;;;;;;;;;14.60;99.90;;;;;;5062857;28;20621;-68
2023/08/03 07:51:13;;;;;;;0.28;0.20;;;14.50;99.90;;;;;;5060418;28;20448;-68
2023/08/03 07:53:38;;;;;;;1.38;0.50;;;14.60;99.90;;;;;;5065971;28;20041;-68
2023/08/03 07:56:04;;;;;;;;;;;14.50;99.90;;;;;;5065274;28;20082;-69
2023/08/03 07:58:29;;;;;;;1.08;0.30;;;14.40;99.90;;;;;;5059970;28;19974;-67
2023/08/03 08:01:07;;;;;;;3.05;0.63;;;14.40;99.90;;;;;;5063160;28;20582;-68
2023/08/03 08:03:35;;;;;;;1.92;0.30;;;14.40;99.90;;;;;;5063790;28;20033;-68
2023/08/03 08:06:19;;;;;;;1.45;0.40;;;14.30;99.90;;;;;;5064195;28;20156;-69
2023/08/03 08:08:47;;;;;;;0.50;0.30;;;14.30;99.90;;;;;;5053568;28;20096;-68
2023/08/03 08:11:15;;;;;;;0.93;0.30;;;14.30;99.90;;;;;;5057075;28;20094;-68
2023/08/03 08:13:41;;;;;;;2.05;0.30;;;14.30;99.90;;;;;;5066964;28;20148;-69
2023/08/03 08:16:10;;;;;;;1.38;0.47;;;14.30;99.90;;;;;;5065101;28;20098;-69
2023/08/03 08:18:49;;;;;;;1.17;0.30;;;14.30;99.90;;;;;;5065130;28;20041;-67
2023/08/03 08:21:18;;;;;;;2.15;0.30;;;14.30;99.90;;;;;;5060080;28;20102;-68
2023/08/03 08:23:47;;;;;;;0.75;0.30;;;14.30;99.90;;;;;;5065626;28;20242;-68
2023/08/03 08:26:16;;;;;;;2.03;0.50;;;14.30;99.90;;;;;;5064193;28;20860;-69
2023/08/03 08:28:49;;;;;;;0.60;0.30;;;14.30;99.90;;;;;;5063576;28;20050;-69
2023/08/03 08:31:15;;;;;;;0.32;0.22;;;14.40;99.90;;;;;;5054757;28;20036;-70
2023/08/03 08:33:43;;;;;;;;;;;14.40;99.90;;;;;;5060782;28;20063;-68
2023/08/03 08:36:12;;;;;;;0.98;0.40;;;14.40;99.90;;;;;;5066529;28;19931;-67
2023/08/03 08:38:38;;;;;;;0.47;0.30;;;14.50;99.90;;;;;;5058395;28;20041;-66
2023/08/03 08:41:06;;;;;;;;;;;14.50;99.90;;;;;;5058030;28;20055;-66
2023/08/03 08:43:32;;;;;;;1.02;0.50;;;14.60;99.90;;;;;;5052858;28;19920;-68
2023/08/03 08:45:57;;;;;;;;;;;14.60;99.90;;;;;;5067357;28;20102;-66
2023/08/03 08:48:23;;;;;;;1.35;0.38;;;14.50;99.90;;;;;;5064923;28;19926;-66
2023/08/03 08:50:51;;;;;;;1.70;0.30;;;14.50;99.90;;;;;;5063663;28;20033;-67
2023/08/03 08:53:17;;;;;;;1.20;0.32;;;14.40;99.90;;;;;;5056839;28;20048;-67
2023/08/03 08:55:44;;;;;;;;;;;14.30;99.90;;;;;;5060844;28;20032;-66
2023/08/03 08:58:09;;;;;;;0.80;0.40;;;14.30;99.90;;;;;;5060267;28;19974;-66
2023/08/03 09:00:43;;;;;;;;;;;14.30;99.90;;;;;;5066150;28;20127;-66
2023/08/03 09:03:09;;;;;;;1.45;0.30;;;14.30;99.90;;;;;;5065445;28;19938;-65
2023/08/03 09:05:36;;;;;;;;;;;14.40;99.90;;;;;;5056719;28;20497;-67
2023/08/03 09:08:03;;;;;;;1.20;0.50;;;14.40;99.90;;;;;;5064152;28;20686;-68
2023/08/03 09:10:46;;;;;;;1.65;0.30;;;14.40;99.90;;;;;;5065438;28;20044;-67
2023/08/03 09:13:28;;;;;;;0.82;0.43;;;14.50;99.90;;;;;;5051815;28;20154;-67
2023/08/03 09:15:54;;;;;;;2.63;0.55;;;14.50;99.90;;;;;;5062511;28;20067;-65
2023/08/03 09:18:26;;;;;;;2.60;0.52;;;14.60;99.90;;;;;;5059516;28;20036;-67
2023/08/03 09:21:12;;;;;;;1.08;0.22;;;14.60;99.90;;;;;;5063772;28;20045;-65
2023/08/03 09:23:38;;;;;;;0.50;0.28;;;14.70;99.90;;;;;;5066762;28;20058;-64
2023/08/03 09:26:04;;;;;;;;;;;14.70;99.90;;;;;;5067224;28;20048;-66
2023/08/03 09:28:40;;;;;;;3.50;0.52;;;14.70;99.90;;;;;;5061437;28;20375;-67
2023/08/03 09:31:07;;;;;;;0.40;0.30;;;14.70;99.90;;;;;;5060535;28;20040;-66
2023/08/03 09:33:34;;;;;;;0.75;0.40;;;14.70;99.90;;;;;;5065707;28;20040;-66
2023/08/03 09:36:14;;;;;;;1.38;0.30;;;14.70;99.90;;;;;;5063778;28;20124;-65
2023/08/03 09:38:40;;;;;;;0.68;0.30;;;14.70;99.90;;;;;;5062233;28;20036;-67
2023/08/03 09:41:06;;;;;;;1.30;0.40;;;14.70;99.90;;;;;;5059923;28;20052;-65
2023/08/03 09:43:33;;;;;;;0.50;0.32;;;14.70;99.90;;;;;;5057219;28;20052;-67
2023/08/03 09:45:59;;;;;;;2.05;0.60;;;14.70;99.90;;;;;;5062011;28;20036;-66
2023/08/03 09:48:26;;;;;;;;;;;14.70;99.90;;;;;;5064594;28;20041;-65
2023/08/03 09:50:54;;;;;;;1.30;0.60;;;14.70;99.90;;;;;;5063901;28;19965;-66
2023/08/03 09:53:23;;;;;;;0.90;0.35;;;14.70;99.90;;;;;;5062586;28;20055;-66
2023/08/03 09:55:58;;;;;;;2.55;0.38;;;14.70;99.90;;;;;;5058865;28;20044;-67
2023/08/03 09:58:32;;;;;;;0.80;0.47;;;14.80;99.90;;;;;;5064453;28;20044;-66
2023/08/03 10:00:59;;;;;;;0.93;0.20;;;14.80;99.90;;;;;;5063715;28;20039;-65
2023/08/03 10:03:28;;;;;;;0.22;0.20;;;14.80;99.90;;;;;;5058161;28;20037;-67
2023/08/03 10:06:13;;;;;;;0.55;0.40;;;14.80;99.90;;;;;;5055735;28;20845;-67
2023/08/03 10:08:48;;;;;;;0.43;0.30;;;14.80;99.90;;;;;;5046612;28;20048;-70
2023/08/03 10:11:14;;;;;;;3.65;0.43;;;14.70;99.90;;;;;;5063789;28;20052;-68
2023/08/03 10:13:41;;;;;;;;;;;14.70;99.90;;;;;;5065212;28;20054;-68
2023/08/03 10:16:07;;;;;;;0.20;0.20;;;14.80;99.90;;;;;;5064624;28;19931;-67
2023/08/03 10:18:35;;;;;;;;;;;14.80;99.90;;;;;;5043593;28;20045;-71
2023/08/03 10:21:01;;;;;;;0.65;0.20;;;14.90;99.90;;;;;;5054779;28;20664;-67
2023/08/03 10:23:28;;;;;;;0.30;0.30;;;14.90;99.90;;;;;;5061489;28;20127;-65
2023/08/03 10:25:57;;;;;;;0.25;0.20;;;14.80;99.90;;;;;;5064265;28;20448;-69
2023/08/03 10:28:39;;;;;;;0.75;0.28;;;14.80;99.90;;;;;;5063531;28;20060;-68
2023/08/03 10:31:17;;;;;;;0.70;0.30;;;14.90;99.90;;;;;;5057988;28;20485;-67
2023/08/03 10:33:51;;;;;;;0.30;0.30;;;15.00;99.90;;;;;;5066035;28;20075;-67
2023/08/03 10:36:29;;;;;;;0.98;0.22;;;15.00;99.90;;;;;;5068475;28;20054;-68
2023/08/03 10:39:02;;;;;;;0.22;0.20;;;15.00;99.90;;;;;;5071784;28;20043;-67
2023/08/03 10:41:36;;;;;;;0.32;0.20;;;15.00;99.90;;;;;;5058552;28;20040;-68
2023/08/03 10:44:05;;;;;;;0.80;0.30;;;15.10;99.90;;;;;;5057176;28;20056;-67
2023/08/03 10:46:35;;;;;;;0.70;0.38;;;15.20;99.90;;;;;;5049921;28;20049;-67
2023/08/03 10:49:19;;;;;;;0.20;0.20;;;15.40;99.90;;;;;;5052656;28;20037;-66
2023/08/03 10:51:51;;;;;;;0.22;0.20;;;15.40;99.90;;;;;;5055956;28;20094;-67
2023/08/03 10:54:20;;;;;;;0.25;0.20;;;15.50;99.90;;;;;;5049121;28;20040;-66
2023/08/03 10:57:11;;;;;;;1.33;0.40;;;15.50;99.90;;;;;;5062108;28;20165;-67
2023/08/03 10:59:43;;;;;;;0.85;0.30;;;15.60;99.90;;;;;;5075773;28;20044;-66
2023/08/03 11:02:19;;;;;;;0.98;0.30;;;15.60;99.90;;;;;;5053385;28;20285;-67
2023/08/03 11:04:55;;;;;;;0.80;0.30;;;15.60;99.90;;;;;;5058266;28;20127;-66
2023/08/03 11:07:30;;;;;;;0.55;0.40;;;15.60;99.90;;;;;;5046203;28;20059;-66
2023/08/03 11:09:56;;;;;;;0.40;0.40;;;15.60;99.90;;;;;;5059076;28;20037;-66
2023/08/03 11:12:25;;;;;;;0.50;0.40;;;15.50;99.90;;;;;;5059461;28;20028;-67
2023/08/03 11:14:56;;;;;;;0.80;0.30;;;15.40;99.90;;;;;;5051405;28;20040;-66
2023/08/03 11:17:27;;;;;;;0.65;0.40;;;15.30;99.90;;;;;;5060046;28;20040;-66
2023/08/03 11:19:55;;;;;;;0.30;0.30;;;15.30;99.90;;;;;;5062067;28;20040;-66
2023/08/03 11:22:25;;;;;;;0.30;0.30;;;15.40;99.90;;;;;;5063016;28;20496;-67
2023/08/03 11:24:54;;;;;;;1.75;0.57;;;15.40;99.90;;;;;;5064136;28;20566;-66
2023/08/03 11:27:26;;;;;;;0.63;0.57;;;15.40;99.90;;;;;;5063658;28;20045;-66
2023/08/03 11:29:54;;;;;;;0.82;0.55;;;15.40;99.90;;;;;;5051180;28;20472;-66
2023/08/03 11:32:25;;;;;;;0.40;0.40;;;15.40;99.90;;;;;;5058080;28;20052;-67
2023/08/03 11:35:12;;;;;;;0.52;0.50;;;15.40;99.90;;;;;;5060643;28;20043;-67
2023/08/03 11:37:38;;;;;;;1.42;0.63;;;15.50;99.90;;;;;;5044184;28;20029;-67
2023/08/03 11:40:05;;;;;;;;;;;15.60;99.90;;;;;;5063260;28;20032;-67
2023/08/03 11:42:38;;;;;;;0.60;0.60;;;15.70;99.90;;;;;;5051820;28;20273;-66
2023/08/03 11:45:07;;;;;;;0.47;0.43;;;15.80;99.90;;;;;;5046985;28;20047;-68
2023/08/03 11:47:48;;;;;;;1.35;0.60;;;16.00;99.90;;;;;;5054867;28;20044;-68
2023/08/03 11:50:17;;;;;;;0.40;0.40;;;16.30;99.90;;;;;;5061946;28;20838;-68
2023/08/03 11:52:43;;;;;;;1.60;0.52;;;16.50;99.90;;;;;;5060810;28;20080;-68
2023/08/03 11:55:09;;;;;;;;;;;16.70;99.90;;;;;;5064107;28;20079;-68
2023/08/03 12:00:21;;;;;;;2.33;0.50;;;17.00;99.90;;;;;;5038125;28;20037;-68
2023/08/03 12:02:47;;;;;;;0.40;0.38;;;17.10;99.90;;;;;;5078894;28;20098;-68
2023/08/03 12:05:12;;;;;;;;;;;17.30;99.90;;;;;;5063048;28;20044;-68
2023/08/03 12:07:39;;;;;;;1.83;0.50;;;17.20;99.90;;;;;;5062326;28;20433;-68
2023/08/03 12:10:14;;;;;;;1.20;0.40;;;17.00;99.90;;;;;;5055487;28;20044;-67
2023/08/03 12:12:42;;;;;;;2.35;0.60;;;16.90;99.90;;;;;;5065685;28;20788;-67
2023/08/03 12:15:10;;;;;;;0.47;0.38;;;16.90;99.90;;;;;;5051766;28;20036;-67
2023/08/03 12:17:36;;;;;;;1.08;0.50;;;17.00;99.90;;;;;;5051481;28;21015;-68
2023/08/03 12:20:02;;;;;;;2.65;0.30;;;16.90;99.90;;;;;;5057918;28;20040;-68
2023/08/03 12:22:27;;;;;;;0.88;0.40;;;16.80;99.90;;;;;;5064377;28;20041;-67
2023/08/03 12:24:53;;;;;;;;;;;16.70;99.90;;;;;;5061593;28;20409;-67
2023/08/03 12:27:18;;;;;;;1.33;0.38;;;16.60;99.90;;;;;;5062632;28;19924;-67
2023/08/03 12:29:44;;;;;;;;;;;16.40;99.90;;;;;;5062880;28;20119;-67
2023/08/03 12:32:11;;;;;;;1.98;0.40;;;16.40;99.90;;;;;;5057942;28;19998;-67
2023/08/03 12:34:37;;;;;;;0.98;0.50;;;16.40;99.90;;;;;;5065396;28;20093;-67
2023/08/03 12:37:03;;;;;;;;;;;16.40;99.90;;;;;;5066189;28;20660;-67
2023/08/03 12:39:29;;;;;;;1.60;0.63;;;16.30;99.90;;;;;;5066104;28;19916;-67
2023/08/03 12:41:54;;;;;;;2.92;0.57;;;16.30;99.90;;;;;;5064586;28;20076;-67
2023/08/03 12:44:20;;;;;;;;;;;16.30;99.90;;;;;;5060560;28;20167;-67
2023/08/03 12:46:45;;;;;;;0.82;0.50;;;16.20;99.90;;;;;;5065876;28;19924;-67
2023/08/03 12:49:11;;;;;;;;;;;16.20;99.90;;;;;;5058252;28;20127;-67
2023/08/03 12:51:37;;;;;;;1.17;0.60;;;16.10;99.90;;;;;;5064561;28;19916;-67
2023/08/03 12:54:05;;;;;;;;;;;16.20;99.90;;;;;;5065947;28;20039;-67
2023/08/03 12:56:36;;;;;;;2.58;0.65;;;16.10;99.90;;;;;;5064774;28;21128;-67
2023/08/03 12:59:02;;;;;;;2.67;0.45;;;16.10;99.90;;;;;;5050540;28;20116;-67
2023/08/03 13:01:29;;;;;;;1.20;0.60;;;16.20;99.90;;;;;;5064553;28;20170;-67
2023/08/03 13:03:54;;;;;;;4.78;0.70;;;16.20;99.90;;;;;;5064251;28;20400;-67
2023/08/03 13:06:20;;;;;;;;;;;16.20;99.90;;;;;;5065195;28;20081;-66
2023/08/03 13:08:46;;;;;;;5.85;1.63;;;16.20;99.90;;;;;;5064161;28;19916;-65
2023/08/03 13:11:11;;;;;;;;;;;16.10;99.90;;;;;;5064794;28;20044;-69
2023/08/03 13:13:37;;;;;;;1.77;0.88;;;16.10;99.90;;;;;;5044917;28;19926;-68